Time;durP1;ratioP1;P1;durP2;ratioP2;P2;SDS_P1;SDS_P2;PMS_P1;PMS_P2;Temp;Humidity;BMP_temperature;BMP_pressure;BME280_temperature;BME280_humidity;BME280_pressure;Samples;Min_cycle;Max_cycle;Signal;HPM_P1;HPM_P2
2022/08/05 00:10:08;;;;;;;2.17;1.70;;;;;;;20.54;100.00;99566.39;1766299;78;28483;-54
2022/08/05 00:12:35;;;;;;;4.67;1.70;;;;;;;20.22;100.00;99572.91;1738634;81;21418;-53
2022/08/05 00:15:02;;;;;;;3.25;1.57;;;;;;;20.01;100.00;99570.73;1740896;80;21279;-54
2022/08/05 00:17:28;;;;;;;3.15;1.65;;;;;;;19.83;100.00;99574.61;1746439;81;20905;-53
2022/08/05 00:19:55;;;;;;;1.92;1.27;;;;;;;19.69;100.00;99579.58;1739929;80;20904;-53
2022/08/05 00:22:21;;;;;;;10.68;1.77;;;;;;;19.55;100.00;99578.08;1745955;80;20972;-53
2022/08/05 00:24:47;;;;;;;4.37;1.40;;;;;;;19.45;100.00;99575.25;1736551;80;21468;-54
2022/08/05 00:27:14;;;;;;;3.65;1.45;;;;;;;19.37;100.00;99577.79;1737944;81;21234;-53
2022/08/05 00:29:41;;;;;;;5.65;1.80;;;;;;;19.29;100.00;99585.78;1731868;80;565261;-53
2022/08/05 00:32:11;;;;;;;4.40;1.22;;;;;;;19.19;100.00;99587.56;1696792;80;985059;-54
2022/08/05 00:34:35;;;;;;;6.20;1.43;;;;;;;19.14;100.00;99579.77;1607922;80;975280;-53
2022/08/05 00:37:02;;;;;;;9.00;1.60;;;;;;;19.06;100.00;99586.38;1738431;80;20938;-53
2022/08/05 00:39:28;;;;;;;11.50;2.03;;;;;;;19.05;100.00;99589.27;1718998;81;787831;-53
2022/08/05 00:41:55;;;;;;;3.90;1.42;;;;;;;19.05;100.00;99589.27;1615206;80;975385;-54
2022/08/05 00:44:23;;;;;;;5.20;1.67;;;;;;;19.05;100.00;99581.95;1730869;80;702241;-53
2022/08/05 00:46:49;;;;;;;5.28;1.70;;;;;;;19.00;100.00;99577.86;1744513;80;21425;-54
2022/08/05 00:49:18;;;;;;;5.40;1.77;;;;;;;19.01;100.00;99576.38;1742320;80;21049;-53
2022/08/05 00:51:45;;;;;;;4.45;1.72;;;;;;;18.99;100.00;99572.91;1742557;80;21067;-53
2022/08/05 00:54:12;;;;;;;7.03;1.95;;;;;;;18.99;100.00;99569.31;1738685;80;21132;-54
2022/08/05 00:56:39;;;;;;;4.72;1.55;;;;;;;18.99;100.00;99567.45;1703398;81;22111;-53
2022/08/05 00:59:06;;;;;;;3.00;1.42;;;;;;;18.98;100.00;99562.98;1675060;84;21062;-53
2022/08/05 01:01:32;;;;;;;3.45;1.72;;;;;;;18.96;100.00;99563.64;1672089;84;21073;-53
2022/08/05 01:03:59;;;;;;;2.87;2.20;;;;;;;18.95;100.00;99566.49;1668566;83;21474;-53
2022/08/05 03:32:37;;;;;;;3.20;1.92;;;;;;;19.01;100.00;99560.50;1519030;84;984553;-53
2022/08/05 03:35:05;;;;;;;4.15;3.30;;;;;;;19.01;100.00;99560.50;1669220;83;21083;-53
2022/08/05 03:37:32;;;;;;;4.78;4.12;;;;;;;18.56;100.00;99573.41;1639112;83;21104;-54
2022/08/05 03:39:59;;;;;;;4.33;3.87;;;;;;;18.57;100.00;99570.59;1666596;83;21141;-54
2022/08/05 03:42:25;;;;;;;4.90;4.45;;;;;;;18.63;100.00;99569.23;1666406;84;21104;-54
2022/08/05 03:44:52;;;;;;;5.08;3.90;;;;;;;18.68;100.00;99577.38;1672905;83;21105;-54
2022/08/05 03:47:19;;;;;;;3.12;2.98;;;;;;;18.73;100.00;99580.57;1671806;84;21125;-53
2022/08/05 03:49:45;;;;;;;5.12;3.60;;;;;;;18.77;100.00;99582.06;1668866;84;21057;-54
2022/08/05 03:52:15;;;;;;;3.93;3.50;;;;;;;18.81;100.00;99581.28;1538732;84;975581;-54
2022/08/05 03:54:56;;;;;;;3.35;3.15;;;;;;;18.90;100.00;99583.23;1666287;83;21168;-54
2022/08/05 03:57:28;;;;;;;3.47;3.33;;;;;;;18.87;100.00;99581.66;1666787;84;21139;-54
2022/08/05 04:00:02;;;;;;;4.65;4.25;;;;;;;18.92;100.00;99570.34;1669327;83;20994;-54
2022/08/05 04:02:55;;;;;;;5.10;3.87;;;;;;;18.97;100.00;99576.78;1527944;84;985105;-53
2022/08/05 04:05:21;;;;;;;5.92;3.50;;;;;;;18.97;100.00;99576.78;1633183;85;293984;-53
2022/08/05 04:07:49;;;;;;;3.87;3.67;;;;;;;19.02;100.00;99574.02;1672514;84;21167;-53
2022/08/05 04:10:16;;;;;;;4.30;3.95;;;;;;;19.03;100.00;99574.88;1665437;84;21093;-53
2022/08/05 04:12:43;;;;;;;2.83;2.62;;;;;;;19.08;100.00;99578.06;1670066;84;21714;-55
2022/08/05 04:15:10;;;;;;;3.55;3.33;;;;;;;19.15;100.00;99571.95;1659192;84;21985;-55
2022/08/05 04:17:36;;;;;;;4.72;3.50;;;;;;;19.23;100.00;99586.29;1659928;84;21462;-55
2022/08/05 04:20:04;;;;;;;3.42;3.22;;;;;;;19.22;100.00;99581.86;1653610;84;21316;-55
2022/08/05 04:22:31;;;;;;;3.83;3.62;;;;;;;19.27;100.00;99585.04;1653141;84;21042;-52
2022/08/05 04:24:58;;;;;;;3.87;3.58;;;;;;;19.33;100.00;99580.91;1657613;84;21118;-52
2022/08/05 04:27:24;;;;;;;3.70;3.40;;;;;;;19.38;100.00;99584.12;1695308;82;21112;-53
2022/08/05 04:29:51;;;;;;;3.52;3.40;;;;;;;19.40;100.00;99584.33;1694516;82;21110;-53
2022/08/05 04:32:17;;;;;;;2.70;2.50;;;;;;;19.45;100.00;99577.12;1699841;83;21263;-52
2022/08/05 04:34:44;;;;;;;4.12;3.17;;;;;;;19.49;100.00;99579.46;1694889;83;21088;-52
2022/08/05 04:37:10;;;;;;;3.25;3.05;;;;;;;19.54;100.00;99576.34;1698163;82;21034;-53
2022/08/05 04:40:43;;;;;;;3.35;3.10;;;;;;;19.62;100.00;99580.63;1546656;82;975637;-53
2022/08/05 04:43:09;;;;;;;3.08;2.98;;;;;;;19.62;100.00;99580.63;1699516;82;21057;-52
2022/08/05 04:45:36;;;;;;;2.10;2.00;;;;;;;19.82;100.00;99568.78;1700175;82;21082;-51
2022/08/05 04:48:13;;;;;;;2.98;2.87;;;;;;;19.84;100.00;99565.92;1516520;82;984917;-52
2022/08/05 04:50:48;;;;;;;2.63;2.53;;;;;;;19.84;100.00;99565.92;1626057;82;975371;-53
2022/08/05 04:53:16;;;;;;;3.00;2.87;;;;;;;19.96;100.00;99565.70;1522946;82;975685;-51
2022/08/05 04:55:42;;;;;;;3.60;3.40;;;;;;;20.06;100.00;99573.07;1697620;83;21832;-51
2022/08/05 04:58:12;;;;;;;2.83;2.72;;;;;;;20.06;100.00;99571.70;1696839;82;21086;-51
2022/08/05 05:00:38;;;;;;;3.00;2.85;;;;;;;20.03;100.00;99574.20;1695932;82;21451;-51
2022/08/05 05:03:05;;;;;;;4.57;2.93;;;;;;;19.99;100.00;99571.37;1660690;83;984850;-52
2022/08/05 05:05:32;;;;;;;4.27;2.67;;;;;;;20.00;100.00;99568.50;1501841;82;975486;-52
2022/08/05 05:08:23;;;;;;;3.65;3.10;;;;;;;20.01;100.00;99564.77;1514491;82;975679;-49
2022/08/05 05:11:00;;;;;;;4.05;3.17;;;;;;;20.01;100.00;99564.77;1458972;83;977564;-50
2022/08/05 08:31:07;;;;;;;3.12;3.02;;;;;;;20.01;100.00;99564.77;1526665;82;985168;-53
2022/08/05 08:33:33;;;;;;;7.58;6.87;;;;;;;20.01;100.00;99564.77;1696315;82;21054;-54
2022/08/05 08:36:00;;;;;;;8.85;8.18;;;;;;;21.81;100.00;99645.09;1696085;82;21064;-55
2022/08/05 08:38:26;;;;;;;8.75;8.05;;;;;;;21.84;100.00;99640.20;1697845;82;21771;-53
2022/08/05 08:40:53;;;;;;;9.93;9.20;;;;;;;21.88;100.00;99638.88;1697258;82;21721;-53
2022/08/05 08:43:20;;;;;;;9.05;8.55;;;;;;;21.92;100.00;99643.56;1697436;82;21497;-52
2022/08/05 08:45:48;;;;;;;8.33;7.83;;;;;;;21.94;100.00;99641.55;1701096;82;21829;-52
2022/08/05 08:48:15;;;;;;;7.15;6.83;;;;;;;21.98;100.00;99642.13;1700699;82;21034;-53
2022/08/05 08:50:53;;;;;;;7.75;7.05;;;;;;;22.05;100.00;99644.63;1698176;82;21325;-53
2022/08/05 08:53:48;;;;;;;7.85;7.40;;;;;;;22.05;100.00;99644.63;1492256;84;985108;-53
2022/08/05 09:28:23;;;;;;;;;;;;;;;22.05;100.00;99644.63;1468274;82;975455;-52
2022/08/05 09:30:54;;;;;;;7.53;7.12;;;;;;;22.05;100.00;99644.63;1693227;82;20213;-55
2022/08/05 09:33:22;;;;;;;8.30;7.50;;;;;;;22.25;100.00;99667.72;1695012;82;21097;-54
2022/08/05 09:36:02;;;;;;;6.70;6.35;;;;;;;22.17;100.00;99661.26;1696130;82;21142;-54
2022/08/05 09:38:28;;;;;;;8.55;7.95;;;;;;;22.15;100.00;99660.53;1691761;82;21084;-53
2022/08/05 09:41:03;;;;;;;6.83;6.17;;;;;;;22.17;100.00;99658.52;1698621;82;22154;-55
2022/08/05 09:43:36;;;;;;;7.97;7.55;;;;;;;22.21;100.00;99661.30;1696138;82;21126;-53
2022/08/05 09:46:05;;;;;;;9.03;8.20;;;;;;;22.28;100.00;99667.94;1610793;82;975095;-53
